Time;durP1;ratioP1;P1;durP2;ratioP2;P2;SDS_P1;SDS_P2;PMS_P1;PMS_P2;Temp;Humidity;BMP_temperature;BMP_pressure;BME280_temperature;BME280_humidity;BME280_pressure;Samples;Min_cycle;Max_cycle;Signal;HPM_P1;HPM_P2
2023/04/26 00:01:59;;;;;;;6.83;4.73;;;;;;;5.96;81.10;95582.53;4971002;28;20278;-81
2023/04/26 00:04:24;;;;;;;7.20;4.90;;;;;;;5.92;81.99;95584.53;4969456;28;20246;-82
2023/04/26 00:06:50;;;;;;;10.83;4.97;;;;;;;5.86;81.73;95592.69;4991586;28;20195;-80
2023/04/26 00:09:18;;;;;;;6.40;4.67;;;;;;;5.88;82.52;95595.16;4987544;28;20212;-81
2023/04/26 00:11:43;;;;;;;11.13;5.00;;;;;;;5.79;83.50;95588.94;4960562;28;20223;-80
2023/04/26 00:14:08;;;;;;;9.63;5.03;;;;;;;5.74;83.45;95593.63;4972669;28;20621;-80
2023/04/26 00:16:34;;;;;;;7.83;4.83;;;;;;;5.74;83.35;95597.94;4988575;28;20216;-81
2023/04/26 00:19:00;;;;;;;7.27;4.83;;;;;;;5.73;83.28;95591.97;4969911;28;20280;-83
2023/04/26 00:21:25;;;;;;;10.13;5.47;;;;;;;5.72;83.31;95598.06;4976536;28;20191;-82
2023/04/26 00:23:51;;;;;;;7.70;5.47;;;;;;;5.69;83.59;95595.75;4972665;28;20871;-81
2023/04/26 00:26:16;;;;;;;5.47;4.57;;;;;;;5.66;83.38;95593.41;4976354;28;20211;-80
2023/04/26 00:28:41;;;;;;;10.10;5.10;;;;;;;5.63;83.30;95591.88;4971727;28;20208;-80
2023/04/26 00:31:07;;;;;;;6.97;4.87;;;;;;;5.60;83.51;95592.09;4962865;28;20195;-80
2023/04/26 00:33:32;;;;;;;9.10;5.67;;;;;;;5.61;83.40;95598.91;4975435;28;20664;-80
2023/04/26 00:35:57;;;;;;;10.97;5.50;;;;;;;5.58;83.45;95593.16;4969392;28;20305;-84
2023/04/26 00:38:23;;;;;;;5.43;4.73;;;;;;;5.54;83.51;95587.41;4970355;28;20250;-81
2023/04/26 00:40:48;;;;;;;5.50;4.90;;;;;;;5.49;83.15;95586.13;4978380;28;20194;-83
2023/04/26 00:43:13;;;;;;;7.33;5.00;;;;;;;5.44;82.99;95581.31;4989247;28;20322;-83
2023/04/26 00:45:39;;;;;;;8.77;5.40;;;;;;;5.40;82.90;95580.72;4973942;28;20581;-80
2023/04/26 00:48:04;;;;;;;9.50;4.83;;;;;;;5.35;83.14;95582.81;4986906;28;20226;-81
2023/04/26 00:50:30;;;;;;;7.07;4.67;;;;;;;5.28;82.78;95586.78;4984744;28;20188;-81
2023/04/26 00:52:59;;;;;;;5.87;4.80;;;;;;;5.22;83.30;95587.25;4986970;28;20199;-83
2023/04/26 00:55:26;;;;;;;9.67;5.23;;;;;;;5.17;83.64;95589.34;4972371;28;20274;-83
2023/04/26 00:57:51;;;;;;;10.03;5.27;;;;;;;5.10;83.45;95586.41;4992115;28;20257;-82
2023/04/26 01:00:16;;;;;;;7.20;4.70;;;;;;;5.02;83.00;95586.13;4976147;28;20191;-82
2023/04/26 01:02:42;;;;;;;5.47;4.60;;;;;;;4.98;83.56;95584.72;4989128;28;20532;-81
2023/04/26 01:05:08;;;;;;;7.27;5.00;;;;;;;4.94;83.70;95587.63;4968339;28;20271;-79
2023/04/26 01:07:35;;;;;;;8.43;5.10;;;;;;;4.90;84.68;95591.38;4991041;28;20203;-83
2023/04/26 01:10:03;;;;;;;7.57;5.03;;;;;;;4.77;85.02;95581.97;4963491;28;20290;-81
2023/04/26 01:12:29;;;;;;;8.83;5.10;;;;;;;4.77;85.05;95581.13;4975623;28;20191;-80
2023/04/26 01:14:54;;;;;;;8.33;4.80;;;;;;;4.73;85.46;95585.69;4977166;28;20551;-83
2023/04/26 01:17:20;;;;;;;8.57;5.30;;;;;;;4.67;85.53;95575.84;4994835;28;21136;-83
2023/04/26 01:19:46;;;;;;;6.97;4.83;;;;;;;4.67;85.63;95580.16;4984237;28;20649;-83
2023/04/26 01:22:12;;;;;;;6.80;5.27;;;;;;;4.60;86.82;95573.84;4976058;28;20287;-82
2023/04/26 01:24:38;;;;;;;8.10;5.17;;;;;;;4.63;nan;95573.63;4974903;28;20193;-79
2023/04/26 01:27:03;;;;;;;5.97;4.73;;;;;;;4.62;86.19;95569.41;4974020;28;20944;-81
2023/04/26 01:29:29;;;;;;;11.40;5.07;;;;;;;4.62;86.66;95579.69;4977335;28;20215;-80
2023/04/26 01:31:54;;;;;;;10.87;4.83;;;;;;;4.65;87.08;95577.72;4996341;28;20198;-82
2023/04/26 01:34:20;;;;;;;8.80;4.87;;;;;;;4.69;86.98;95575.75;4975236;28;20202;-81
2023/04/26 01:36:45;;;;;;;11.07;5.80;;;;;;;4.67;86.95;95567.31;4971706;28;20262;-82
2023/04/26 01:39:11;;;;;;;9.43;5.00;;;;;;;4.63;87.18;95571.88;4978268;28;20211;-79
2023/04/26 01:41:36;;;;;;;8.60;5.40;;;;;;;4.65;87.14;95566.59;4977286;28;20190;-82
2023/04/26 01:44:02;;;;;;;9.70;5.07;;;;;;;4.62;87.56;95561.69;4990682;28;20183;-81
2023/04/26 01:46:27;;;;;;;9.43;5.90;;;;;;;4.63;86.97;95564.16;4977510;28;20191;-82
2023/04/26 01:48:52;;;;;;;10.20;5.40;;;;;;;4.65;87.45;95562.28;4978599;28;20202;-83
2023/04/26 01:51:17;;;;;;;8.50;5.90;;;;;;;4.63;87.87;95573.63;4973580;28;20188;-81
2023/04/26 01:53:43;;;;;;;6.70;5.10;;;;;;;4.64;86.79;95567.53;4972352;28;20237;-83
2023/04/26 01:56:08;;;;;;;9.33;5.50;;;;;;;4.58;87.33;95570.53;4978524;28;20210;-82
2023/04/26 01:58:34;;;;;;;11.33;6.07;;;;;;;4.63;86.94;95571.03;4993964;28;20230;-82
2023/04/26 02:01:07;;;;;;;11.73;6.27;;;;;;;4.66;87.30;95578.53;4974344;28;20550;-81
2023/04/26 02:03:32;;;;;;;11.10;6.20;;;;;;;4.71;87.55;95571.31;4983032;28;20249;-82
2023/04/26 02:05:57;;;;;;;9.43;6.17;;;;;;;4.78;87.68;95572.50;4973450;28;20645;-80
2023/04/26 02:08:23;;;;;;;8.83;6.70;;;;;;;4.80;88.23;95573.22;4971576;28;20265;-80
2023/04/26 02:10:48;;;;;;;9.40;7.07;;;;;;;4.88;87.99;95578.63;4968551;28;20195;-79
2023/04/26 02:13:14;;;;;;;12.70;8.53;;;;;;;4.93;88.57;95581.66;4964704;28;20188;-80
2023/04/26 02:15:39;;;;;;;11.67;9.00;;;;;;;4.99;89.38;95582.97;4992048;28;20259;-81
2023/04/26 02:18:05;;;;;;;13.07;9.67;;;;;;;5.02;89.76;95582.75;4980611;28;20298;-80
2023/04/26 02:20:30;;;;;;;15.90;10.23;;;;;;;5.03;89.57;95581.81;4961954;28;20703;-81
2023/04/26 02:22:55;;;;;;;16.93;11.70;;;;;;;5.03;90.10;95581.81;4978883;28;20188;-82
2023/04/26 02:25:21;;;;;;;24.67;13.10;;;;;;;4.99;91.21;95586.38;4980147;28;20226;-80
2023/04/26 02:27:46;;;;;;;16.87;12.83;;;;;;;5.01;91.28;95581.94;4978202;28;20210;-79
2023/04/26 02:30:12;;;;;;;18.57;12.50;;;;;;;5.00;91.49;95571.75;4994794;28;20183;-80
2023/04/26 02:32:37;;;;;;;18.07;13.10;;;;;;;4.98;91.38;95574.44;4980059;28;20190;-81
2023/04/26 02:35:04;;;;;;;20.30;12.47;;;;;;;5.00;91.73;95569.19;4976527;28;20176;-80
2023/04/26 02:37:29;;;;;;;16.43;13.03;;;;;;;4.99;91.83;95570.13;4993510;28;20298;-81
2023/04/26 02:39:54;;;;;;;18.40;13.13;;;;;;;4.94;91.92;95572.19;4977975;28;20298;-79
2023/04/26 02:42:20;;;;;;;18.50;12.97;;;;;;;4.97;91.79;95577.94;4990365;28;20648;-81
2023/04/26 02:44:45;;;;;;;16.33;12.50;;;;;;;4.95;91.84;95566.13;4979589;28;20217;-80
2023/04/26 02:47:10;;;;;;;18.43;12.60;;;;;;;4.89;91.82;95564.81;4977441;28;20190;-80
2023/04/26 02:49:36;;;;;;;18.13;13.63;;;;;;;4.88;92.19;95567.50;4963905;28;20189;-81
2023/04/26 02:52:01;;;;;;;15.23;11.33;;;;;;;4.91;92.41;95562.94;4976344;28;20198;-79
2023/04/26 02:54:26;;;;;;;20.33;12.40;;;;;;;4.89;92.05;95567.41;5005694;28;20226;-80
2023/04/26 02:56:52;;;;;;;22.03;11.63;;;;;;;4.80;91.65;95562.91;4976830;28;20215;-79
2023/04/26 02:59:17;;;;;;;20.57;12.73;;;;;;;4.77;91.90;95570.84;4973432;28;20355;-80
2023/04/26 03:01:42;;;;;;;19.03;11.40;;;;;;;4.79;92.18;95581.88;4996288;28;20718;-79
2023/04/26 03:04:08;;;;;;;16.00;10.93;;;;;;;4.75;91.78;95572.72;4985331;28;20204;-80
2023/04/26 03:06:33;;;;;;;15.40;11.20;;;;;;;4.72;91.97;95578.09;5004270;28;20202;-78
2023/04/26 03:08:59;;;;;;;22.53;12.60;;;;;;;4.68;92.09;95564.66;5014278;28;20207;-81
2023/04/26 03:11:24;;;;;;;15.60;10.90;;;;;;;4.69;92.25;95570.59;4993891;28;20183;-81
2023/04/26 03:13:50;;;;;;;17.33;11.70;;;;;;;4.66;91.77;95561.34;4991880;28;20192;-81
2023/04/26 03:16:18;;;;;;;16.73;10.57;;;;;;;4.66;91.92;95568.25;4991192;28;20206;-81
2023/04/26 03:18:43;;;;;;;14.90;10.67;;;;;;;4.64;91.60;95570.94;4970307;28;20261;-79
2023/04/26 03:21:08;;;;;;;14.77;10.10;;;;;;;4.58;91.08;95568.78;5003886;28;20178;-81
2023/04/26 03:23:34;;;;;;;12.30;9.10;;;;;;;4.60;91.18;95566.13;4991708;28;20242;-80
2023/04/26 03:25:59;;;;;;;13.47;9.30;;;;;;;4.61;91.11;95568.59;4978716;28;20191;-79
2023/04/26 03:28:24;;;;;;;14.37;9.07;;;;;;;4.56;90.66;95570.66;4984174;28;20577;-81
2023/04/26 03:30:50;;;;;;;16.27;9.53;;;;;;;4.54;89.88;95564.81;5018933;28;20190;-80
2023/04/26 03:33:16;;;;;;;15.60;8.77;;;;;;;4.53;90.14;95569.13;4973612;28;20234;-81
2023/04/26 03:35:42;;;;;;;13.00;9.03;;;;;;;4.46;90.16;95560.22;4981450;28;20226;-80
2023/04/26 03:38:07;;;;;;;16.80;9.03;;;;;;;4.31;90.48;95560.47;5001492;28;20200;-81
2023/04/26 03:40:33;;;;;;;14.10;9.13;;;;;;;4.40;90.12;95562.41;5001056;28;20217;-80
2023/04/26 03:42:58;;;;;;;12.47;8.60;;;;;;;4.25;90.51;95564.31;4987281;28;20277;-80
2023/04/26 03:45:25;;;;;;;13.47;9.23;;;;;;;4.24;90.10;95558.38;4981196;28;20206;-82
2023/04/26 03:47:50;;;;;;;13.07;9.87;;;;;;;4.21;90.12;95566.28;4991152;28;20306;-80
2023/04/26 03:50:16;;;;;;;11.50;9.13;;;;;;;4.33;90.46;95572.31;4988394;28;20263;-82
2023/04/26 03:52:41;;;;;;;15.80;9.57;;;;;;;4.33;90.13;95571.47;4964970;28;20295;-81
2023/04/26 03:55:08;;;;;;;14.33;9.03;;;;;;;4.27;89.81;95575.31;4966441;28;20186;-81
2023/04/26 03:57:34;;;;;;;15.23;9.60;;;;;;;4.28;89.78;95564.09;4990976;28;20714;-81
2023/04/26 04:00:00;;;;;;;12.77;8.87;;;;;;;4.26;89.92;95577.06;4969154;28;20186;-82
2023/04/26 04:02:25;;;;;;;11.60;9.20;;;;;;;4.21;90.07;95573.16;4992108;28;20180;-82
2023/04/26 04:04:51;;;;;;;15.80;8.83;;;;;;;4.32;89.90;95570.66;4964778;28;20183;-81
2023/04/26 04:07:16;;;;;;;12.27;7.93;;;;;;;4.35;89.66;95561.91;4978030;28;20183;-82
2023/04/26 04:09:41;;;;;;;13.03;8.13;;;;;;;4.40;89.96;95572.69;4973954;28;20687;-82
2023/04/26 04:12:06;;;;;;;14.77;8.87;;;;;;;4.33;89.49;95566.31;4971439;28;20220;-82
2023/04/26 04:14:32;;;;;;;12.03;8.63;;;;;;;4.26;89.51;95561.63;4992605;28;20236;-82
2023/04/26 04:16:58;;;;;;;12.93;8.57;;;;;;;4.38;89.12;95553.97;4972649;28;20203;-80
2023/04/26 04:19:23;;;;;;;12.13;9.17;;;;;;;4.36;89.03;95558.41;4979562;28;20214;-82
2023/04/26 04:21:49;;;;;;;17.80;11.37;;;;;;;4.44;89.49;95556.94;4991615;28;20206;-82
2023/04/26 04:24:14;;;;;;;14.37;10.10;;;;;;;4.46;89.20;95559.41;4976167;28;20195;-82
2023/04/26 04:26:40;;;;;;;15.33;9.40;;;;;;;4.48;88.88;95563.50;4990965;28;20190;-81
2023/04/26 04:29:07;;;;;;;12.47;8.70;;;;;;;4.50;89.00;95569.34;4987429;28;20588;-81
2023/04/26 04:31:34;;;;;;;14.40;8.90;;;;;;;4.52;88.02;95566.69;4969968;28;20783;-80
2023/04/26 04:33:59;;;;;;;15.93;9.93;;;;;;;4.55;88.44;95566.44;4972439;28;20186;-81
2023/04/26 04:36:25;;;;;;;15.47;10.10;;;;;;;4.60;88.23;95572.09;5000785;28;20255;-82
2023/04/26 04:38:52;;;;;;;19.10;10.57;;;;;;;4.64;87.58;95573.50;4986328;28;20219;-82
2023/04/26 04:41:17;;;;;;;16.43;9.37;;;;;;;4.73;87.22;95569.44;4975346;28;20197;-82
2023/04/26 04:47:19;;;;;;;16.20;8.73;;;;;;;4.69;85.33;95575.75;4908620;29;20229;-82
2023/04/26 04:49:53;;;;;;;13.73;8.33;;;;;;;4.81;85.39;95580.00;4885694;29;20205;-82
2023/04/26 04:52:20;;;;;;;13.87;8.43;;;;;;;4.89;86.10;95582.84;4888852;29;20200;-84
2023/04/26 04:54:46;;;;;;;12.47;7.83;;;;;;;5.05;85.39;95585.94;4908900;29;20202;-83
2023/04/26 04:57:12;;;;;;;15.83;9.37;;;;;;;4.95;83.63;95584.16;4896217;29;20288;-85
2023/04/26 04:59:38;;;;;;;16.07;9.63;;;;;;;5.08;83.38;95583.13;4889736;29;20186;-84
2023/04/26 05:02:03;;;;;;;16.50;10.03;;;;;;;5.27;83.59;95590.28;4892510;29;20669;-84
2023/04/26 05:04:30;;;;;;;18.73;11.40;;;;;;;5.32;83.08;95595.94;4890631;29;20217;-84
2023/04/26 05:06:55;;;;;;;12.83;8.67;;;;;;;5.58;80.21;95598.31;4891952;29;20259;-84
2023/04/26 05:09:21;;;;;;;15.60;9.17;;;;;;;6.17;78.02;95595.50;4887994;29;20238;-84
2023/04/26 05:11:46;;;;;;;12.10;8.33;;;;;;;6.50;76.72;95602.34;4898734;29;20203;-83
2023/04/26 05:14:12;;;;;;;10.37;7.63;;;;;;;6.36;76.27;95600.88;4888867;29;20611;-85
2023/04/26 05:16:37;;;;;;;10.60;7.13;;;;;;;6.53;77.04;95600.34;4905748;29;20237;-84
2023/04/26 05:19:02;;;;;;;9.87;6.73;;;;;;;6.80;76.46;95606.81;4903790;29;20698;-82
2023/04/26 05:21:28;;;;;;;10.70;7.37;;;;;;;7.01;76.09;95612.03;4890043;29;20198;-84
2023/04/26 05:23:53;;;;;;;11.50;7.00;;;;;;;7.14;74.92;95609.28;4935088;28;20207;-82
2023/04/26 05:26:19;;;;;;;11.53;7.13;;;;;;;7.03;74.48;95613.56;4989696;28;20210;-80
2023/04/26 05:28:44;;;;;;;9.67;7.83;;;;;;;7.20;74.91;95619.94;4995780;28;20208;-81
2023/04/26 05:31:10;;;;;;;12.30;8.33;;;;;;;7.30;73.63;95622.59;4985490;28;20198;-80
2023/04/26 05:33:36;;;;;;;13.40;7.93;;;;;;;7.46;73.07;95620.38;4971704;28;20197;-82
2023/04/26 05:42:59;;;;;;;13.70;9.10;;;;;;;7.65;70.64;95623.06;4967068;28;20738;-84
2023/04/26 05:45:24;;;;;;;12.83;8.67;;;;;;;7.70;68.05;95625.28;4938889;28;20204;-82
2023/04/26 05:47:50;;;;;;;15.43;9.67;;;;;;;7.60;67.13;95627.00;4951634;28;20218;-83
2023/04/26 05:50:16;;;;;;;16.03;9.97;;;;;;;7.41;66.00;95625.09;4971246;28;20193;-83
2023/04/26 05:52:41;;;;;;;15.77;8.67;;;;;;;7.72;65.75;95622.56;4968270;28;20204;-79
2023/04/26 05:55:06;;;;;;;17.03;8.87;;;;;;;8.19;64.93;95631.47;4937328;28;20197;-83
2023/04/26 05:57:33;;;;;;;11.13;8.03;;;;;;;8.12;62.94;95632.94;4951137;28;20315;-81
2023/04/26 05:59:58;;;;;;;10.17;7.67;;;;;;;8.14;63.07;95629.28;4937166;28;20192;-83
2023/04/26 06:02:24;;;;;;;12.23;6.63;;;;;;;8.51;62.91;95626.16;4951731;28;20357;-82
2023/04/26 06:04:50;;;;;;;7.70;6.40;;;;;;;8.33;61.90;95632.91;4930649;28;20283;-83
2023/04/26 06:07:16;;;;;;;11.40;6.77;;;;;;;8.49;61.66;95633.25;4933987;28;20189;-82
2023/04/26 06:09:41;;;;;;;12.20;6.80;;;;;;;8.28;60.34;95640.22;4937041;28;20184;-80
2023/04/26 06:12:07;;;;;;;12.37;7.10;;;;;;;8.32;62.13;95644.19;4932462;28;20301;-80
2023/04/26 06:14:32;;;;;;;11.63;7.00;;;;;;;8.12;63.08;95646.69;4934507;28;20325;-82
2023/04/26 06:16:57;;;;;;;9.47;6.20;;;;;;;7.69;61.96;95653.84;4951363;28;20678;-82
2023/04/26 06:19:22;;;;;;;9.10;6.10;;;;;;;8.04;61.60;95659.47;4970240;28;20223;-83
2023/04/26 06:21:48;;;;;;;9.53;5.63;;;;;;;8.08;60.20;95662.63;4979222;28;20210;-82
2023/04/26 06:24:14;;;;;;;8.80;5.20;;;;;;;8.32;57.34;95655.38;4995302;28;20187;-82
2023/04/26 06:26:39;;;;;;;10.33;5.60;;;;;;;8.21;58.23;95656.25;4993264;28;20282;-82
2023/04/26 06:29:05;;;;;;;9.63;5.00;;;;;;;8.38;59.33;95661.81;4975376;28;20211;-83
2023/04/26 06:31:30;;;;;;;9.10;5.30;;;;;;;9.35;55.57;95655.00;4988092;28;20198;-81
2023/04/26 06:33:56;;;;;;;10.63;5.17;;;;;;;10.02;52.67;95663.63;4979383;28;20565;-81
2023/04/26 06:36:21;;;;;;;10.00;4.80;;;;;;;10.71;52.04;95652.84;4976610;28;20694;-81
2023/04/26 06:38:46;;;;;;;7.77;5.37;;;;;;;12.79;47.91;95659.03;4980313;28;20642;-81
2023/04/26 06:41:12;;;;;;;8.40;4.57;;;;;;;13.50;44.19;95655.91;4963837;28;20680;-80
2023/04/26 06:43:37;;;;;;;7.83;4.97;;;;;;;13.88;43.24;95651.84;4971405;28;20218;-82
2023/04/26 06:46:02;;;;;;;9.20;4.00;;;;;;;14.40;40.54;95654.00;4978555;28;20752;-82
2023/04/26 06:48:28;;;;;;;8.20;4.17;;;;;;;15.58;38.99;95649.44;4988000;28;20254;-82
2023/04/26 06:50:53;;;;;;;9.85;3.72;;;;;;;15.72;36.45;95650.50;4980130;28;20191;-81
2023/04/26 06:53:18;;;;;;;6.97;3.45;;;;;;;15.70;36.08;95657.72;4977283;28;20182;-81
2023/04/26 06:55:44;;;;;;;7.43;3.25;;;;;;;14.39;38.13;95654.16;4978080;28;20188;-80
2023/04/26 06:58:10;;;;;;;6.25;3.53;;;;;;;14.24;39.30;95655.84;4992757;28;20249;-83
2023/04/26 07:00:35;;;;;;;6.27;3.37;;;;;;;12.69;42.05;95648.75;5013512;28;20187;-82
2023/04/26 07:03:00;;;;;;;7.03;3.00;;;;;;;12.70;41.46;95647.75;4991466;28;20191;-82
2023/04/26 07:05:26;;;;;;;4.30;2.40;;;;;;;12.42;39.10;95647.16;5024074;28;20195;-82
2023/04/26 07:07:51;;;;;;;5.93;2.37;;;;;;;12.00;40.35;95641.91;4986071;28;20207;-83
2023/04/26 07:10:17;;;;;;;7.77;2.83;;;;;;;11.52;42.58;95648.38;4985437;28;20192;-82
2023/04/26 07:12:42;;;;;;;5.97;2.63;;;;;;;11.41;41.08;95650.41;4983020;28;20199;-82
2023/04/26 07:15:08;;;;;;;5.23;3.20;;;;;;;10.45;43.47;95645.72;4989653;28;20175;-82
2023/04/26 07:17:33;;;;;;;5.77;3.57;;;;;;;10.33;45.06;95646.84;4986127;28;20246;-81
2023/04/26 07:19:59;;;;;;;5.10;3.47;;;;;;;9.67;47.27;95640.91;4989828;28;20215;-83
2023/04/26 07:22:24;;;;;;;6.83;3.40;;;;;;;9.51;48.42;95631.09;4996129;28;20188;-80
2023/04/26 07:24:49;;;;;;;7.97;3.63;;;;;;;9.47;48.20;95632.34;4998009;28;20225;-81
2023/04/26 07:27:15;;;;;;;10.17;4.63;;;;;;;9.57;50.38;95636.56;4993327;28;20203;-81
2023/04/26 07:29:40;;;;;;;8.60;4.50;;;;;;;9.46;48.13;95630.72;4996856;28;20199;-82
2023/04/26 07:32:05;;;;;;;6.43;3.93;;;;;;;9.48;49.65;95632.22;4991791;28;20211;-79
2023/04/26 07:34:31;;;;;;;9.60;4.80;;;;;;;9.16;52.09;95634.28;4992492;28;20212;-81
2023/04/26 07:36:56;;;;;;;5.93;5.03;;;;;;;8.87;53.13;95614.38;4988113;28;20288;-82
2023/04/26 07:39:22;;;;;;;8.83;4.80;;;;;;;9.55;53.80;95615.16;5013572;28;20234;-80
2023/04/26 07:41:47;;;;;;;8.50;4.47;;;;;;;9.65;53.82;95622.91;4989442;28;20184;-81
2023/04/26 07:44:12;;;;;;;8.77;5.00;;;;;;;9.44;51.38;95632.59;4996743;28;20171;-80
2023/04/26 07:46:38;;;;;;;7.67;4.70;;;;;;;8.75;52.92;95623.22;4994025;28;20180;-81
2023/04/26 07:49:03;;;;;;;7.07;4.77;;;;;;;9.06;52.45;95636.84;4973513;28;20819;-82
2023/04/26 07:51:28;;;;;;;8.53;4.83;;;;;;;9.29;53.79;95640.81;4990190;28;20191;-81
2023/04/26 07:53:54;;;;;;;8.10;5.10;;;;;;;9.36;52.17;95638.47;4991853;28;20188;-81
2023/04/26 07:56:20;;;;;;;12.10;5.00;;;;;;;9.05;51.36;95635.22;4975335;28;20242;-79
2023/04/26 07:58:45;;;;;;;9.33;5.63;;;;;;;9.10;52.10;95643.44;4980037;28;20207;-82
2023/04/26 08:01:11;;;;;;;11.50;5.50;;;;;;;9.11;52.92;95639.88;4977072;28;20552;-82
2023/04/26 08:03:36;;;;;;;6.37;4.97;;;;;;;9.30;52.49;95642.47;4987626;28;20207;-81
2023/04/26 08:06:02;;;;;;;8.70;4.40;;;;;;;10.24;51.54;95649.50;4972348;28;20192;-81
2023/04/26 08:08:27;;;;;;;8.00;4.30;;;;;;;10.86;51.31;95635.75;4986788;28;20224;-82
2023/04/26 08:10:53;;;;;;;6.63;4.43;;;;;;;10.67;47.33;95638.47;4998439;28;20187;-83
2023/04/26 08:13:21;;;;;;;6.57;4.43;;;;;;;10.41;46.10;95635.75;4998208;28;20205;-81
2023/04/26 08:15:47;;;;;;;8.90;4.97;;;;;;;10.79;47.34;95639.94;4995131;28;20192;-82
2023/04/26 08:18:12;;;;;;;8.23;4.77;;;;;;;10.62;46.87;95643.31;5002033;28;20203;-81
2023/04/26 08:20:38;;;;;;;12.03;4.60;;;;;;;10.72;46.62;95646.66;4994015;28;20183;-82
2023/04/26 08:23:03;;;;;;;10.10;4.20;;;;;;;10.57;48.57;95645.53;4990431;28;20199;-82
2023/04/26 08:25:28;;;;;;;5.67;3.67;;;;;;;10.41;48.81;95640.94;4971720;28;20191;-81
2023/04/26 08:27:54;;;;;;;6.53;4.00;;;;;;;10.79;48.74;95642.53;4975203;28;20262;-81
2023/04/26 08:30:20;;;;;;;9.10;4.47;;;;;;;10.34;49.24;95645.91;4999021;28;20258;-83
2023/04/26 08:32:45;;;;;;;8.50;4.30;;;;;;;10.10;48.60;95648.97;4989687;28;20222;-82
2023/04/26 08:35:11;;;;;;;7.17;4.27;;;;;;;9.25;49.68;95649.00;4975919;28;20196;-82
2023/04/26 08:37:36;;;;;;;5.57;4.07;;;;;;;9.02;50.33;95659.63;4982019;28;20215;-82
2023/04/26 08:40:08;;;;;;;10.07;5.03;;;;;;;9.57;50.42;95649.53;4983087;28;20191;-82
2023/04/26 08:42:41;;;;;;;6.77;4.73;;;;;;;9.84;49.60;95648.78;4978553;28;20187;-81
2023/04/26 08:45:12;;;;;;;6.47;4.17;;;;;;;9.55;48.30;95646.25;4978484;28;20191;-83
2023/04/26 11:30:36;;;;;;;5.10;3.50;;;;;;;12.63;43.93;95570.38;5015722;28;20218;-82
2023/04/26 11:33:05;;;;;;;4.73;3.70;;;;;;;12.47;44.35;95563.38;5012734;28;20206;-79
2023/04/26 11:35:37;;;;;;;7.67;3.47;;;;;;;13.05;43.86;95565.09;4980716;28;20186;-81
2023/04/26 11:38:04;;;;;;;10.03;5.97;;;;;;;11.63;43.34;95562.31;5001464;28;20219;-82
2023/04/26 11:40:31;;;;;;;9.93;3.43;;;;;;;11.60;43.19;95557.44;4975907;28;20203;-81
2023/04/26 11:43:07;;;;;;;8.23;3.90;;;;;;;11.78;42.61;95556.53;4972311;28;20187;-82
2023/04/26 11:45:34;;;;;;;7.67;3.50;;;;;;;12.07;42.62;95551.81;4992745;28;20199;-82
2023/04/26 11:52:27;;;;;;;7.10;3.37;;;;;;;13.49;43.12;95554.34;4945981;29;20213;-82
2023/04/26 11:55:54;;;;;;;6.70;3.30;;;;;;;12.95;42.84;95549.59;4899716;29;20250;-82
2023/04/26 11:59:23;;;;;;;6.20;3.23;;;;;;;12.97;40.84;95557.25;4819150;29;20230;-79
2023/04/26 12:02:35;;;;;;;8.03;3.20;;;;;;;12.85;40.65;95550.75;4710356;30;20267;-84
2023/04/26 12:05:02;;;;;;;3.53;2.70;;;;;;;12.25;42.45;95548.31;4735890;30;20209;-81
2023/04/26 12:15:51;;;;;;;10.43;3.60;;;;;;;11.44;44.33;95541.72;4700327;30;20736;-84
2023/04/26 15:17:36;;;;;;;7.90;3.50;;;;;;;13.26;40.94;95508.09;4983555;28;20346;-80
2023/04/26 15:20:08;;;;;;;6.53;3.83;;;;;;;13.59;40.45;95508.81;4980082;28;20220;-81
2023/04/26 15:22:34;;;;;;;5.47;3.53;;;;;;;13.20;42.13;95507.91;4957102;28;20249;-81
2023/04/26 15:25:07;;;;;;;9.77;3.47;;;;;;;12.67;41.27;95510.00;4953821;28;20196;-81
2023/04/26 15:27:54;;;;;;;5.37;2.97;;;;;;;12.66;42.46;95505.78;4971305;28;20235;-81
2023/04/26 15:30:43;;;;;;;8.00;3.63;;;;;;;11.35;43.65;95506.22;4980995;28;20235;-82
2023/04/26 15:33:47;;;;;;;6.43;3.27;;;;;;;11.62;43.85;95511.25;4960471;28;20188;-82
2023/04/26 15:36:23;;;;;;;7.67;4.13;;;;;;;11.96;43.05;95507.88;4968229;28;20239;-82
2023/04/26 15:39:11;;;;;;;5.87;2.93;;;;;;;12.03;42.91;95501.06;4963395;28;20246;-81
2023/04/26 15:41:44;;;;;;;5.27;3.10;;;;;;;11.47;44.44;95507.59;4960207;28;20202;-82
2023/04/26 15:44:27;;;;;;;6.17;3.87;;;;;;;11.59;43.76;95498.56;4948216;28;20569;-82
2023/04/26 15:46:55;;;;;;;6.27;3.23;;;;;;;12.06;42.87;95494.72;4976722;28;20184;-82
2023/04/26 15:49:38;;;;;;;7.67;3.70;;;;;;;12.09;42.81;95495.22;4968057;28;20223;-82
2023/04/26 15:52:18;;;;;;;7.73;3.70;;;;;;;11.89;42.76;95506.88;4971453;28;20291;-82
2023/04/26 15:55:06;;;;;;;3.80;2.70;;;;;;;11.19;44.15;95506.13;4958715;28;20200;-79
2023/04/26 15:57:40;;;;;;;7.17;3.10;;;;;;;11.54;43.88;95503.41;4966434;28;20270;-84
2023/04/26 16:00:15;;;;;;;3.77;2.60;;;;;;;11.83;44.02;95504.88;4975336;28;20206;-81
2023/04/26 16:03:06;;;;;;;4.83;3.07;;;;;;;11.56;43.40;95511.06;4959069;28;20192;-81
2023/04/26 16:05:40;;;;;;;5.30;2.73;;;;;;;11.69;43.90;95506.25;4923540;29;20679;-80
2023/04/26 16:08:08;;;;;;;5.33;3.20;;;;;;;11.60;44.30;95509.78;4921714;29;20272;-81
2023/04/26 16:10:47;;;;;;;3.97;2.60;;;;;;;11.18;43.80;95513.09;4935837;29;20213;-79
2023/04/26 16:13:15;;;;;;;6.83;2.90;;;;;;;11.23;44.36;95507.47;4954351;29;20201;-81
2023/04/26 16:15:44;;;;;;;11.87;6.03;;;;;;;11.19;43.76;95506.94;4939188;29;20201;-80
2023/04/26 16:18:15;;;;;;;6.70;4.10;;;;;;;11.04;44.57;95503.25;4930881;29;20221;-81
2023/04/26 16:20:46;;;;;;;10.53;7.57;;;;;;;10.88;45.31;95496.16;4940764;29;20285;-81
2023/04/26 16:23:14;;;;;;;6.30;3.50;;;;;;;10.96;44.58;95495.41;4935172;29;20201;-81
2023/04/26 16:25:45;;;;;;;4.70;3.03;;;;;;;10.77;45.20;95502.38;4929819;29;20209;-81
2023/04/26 16:28:13;;;;;;;6.57;3.00;;;;;;;10.77;45.15;95486.00;4956873;29;20272;-81
2023/04/26 16:30:38;;;;;;;5.20;3.43;;;;;;;10.81;45.36;95492.53;4940179;29;20332;-82
2023/04/26 16:33:08;;;;;;;8.50;4.70;;;;;;;10.43;46.11;95491.88;4938243;29;20276;-80
2023/04/26 16:35:34;;;;;;;6.83;3.60;;;;;;;10.75;45.33;95499.13;4936696;29;20208;-83
2023/04/26 16:38:01;;;;;;;7.87;4.87;;;;;;;10.56;45.73;95488.09;4929680;29;20221;-82
2023/04/26 16:40:27;;;;;;;6.70;4.33;;;;;;;10.82;44.98;95501.94;4918848;29;20248;-80
2023/04/26 16:42:52;;;;;;;9.33;4.07;;;;;;;10.70;45.52;95491.00;4972998;28;20208;-83
2023/04/26 16:45:18;;;;;;;8.87;3.80;;;;;;;10.86;46.05;95495.47;4958664;28;20199;-83
2023/04/26 16:47:55;;;;;;;5.83;3.10;;;;;;;10.92;45.00;95504.47;4946159;28;20204;-84
2023/04/26 16:51:05;;;;;;;3.80;3.20;;;;;;;10.99;45.07;95495.91;4964142;28;20196;-81
2023/04/26 16:53:31;;;;;;;6.93;2.80;;;;;;;10.86;44.62;95505.06;4933058;29;20197;-82
2023/04/26 16:55:57;;;;;;;3.37;2.47;;;;;;;11.02;44.78;95498.19;4918269;29;20292;-83
2023/04/26 16:58:23;;;;;;;5.93;2.97;;;;;;;11.00;45.10;95499.34;4901460;29;20245;-83
2023/04/26 17:00:54;;;;;;;6.37;3.10;;;;;;;11.10;44.95;95497.44;4918223;29;20252;-81
2023/04/26 17:03:19;;;;;;;7.90;3.80;;;;;;;11.16;44.69;95498.63;4901105;29;20657;-82
2023/04/26 17:05:46;;;;;;;4.57;2.77;;;;;;;11.20;45.28;95502.56;4917546;29;20213;-82
2023/04/26 17:08:11;;;;;;;5.60;2.70;;;;;;;11.12;44.64;95503.31;4901471;29;20245;-82
2023/04/26 17:10:40;;;;;;;7.87;2.47;;;;;;;11.20;44.90;95508.56;4905504;29;20758;-82
2023/04/26 17:13:06;;;;;;;4.43;2.40;;;;;;;11.03;44.91;95504.22;4899031;29;20209;-82
2023/04/26 17:15:35;;;;;;;4.23;2.97;;;;;;;10.80;45.66;95503.88;4932967;29;20198;-82
2023/04/26 17:18:00;;;;;;;8.70;4.03;;;;;;;10.78;45.90;95505.84;4914760;29;20305;-82
2023/04/26 17:20:27;;;;;;;6.00;3.30;;;;;;;10.49;45.75;95509.44;4916789;29;20611;-81
2023/04/26 17:22:53;;;;;;;5.90;3.20;;;;;;;10.45;46.55;95508.13;4916396;29;20284;-82
2023/04/26 17:25:18;;;;;;;4.43;2.93;;;;;;;10.41;46.31;95506.78;4899599;29;20281;-82
2023/04/26 17:27:44;;;;;;;5.90;3.90;;;;;;;10.46;46.18;95512.34;4952490;28;20227;-82
2023/04/26 17:30:09;;;;;;;5.50;3.20;;;;;;;10.37;46.43;95510.63;4958757;28;20196;-81
2023/04/26 17:32:35;;;;;;;5.53;3.77;;;;;;;10.28;46.72;95508.91;4954209;28;20286;-81
2023/04/26 17:35:00;;;;;;;6.10;3.20;;;;;;;10.28;46.79;95516.72;4957603;28;20180;-82
2023/04/26 17:37:27;;;;;;;4.00;3.07;;;;;;;10.35;46.61;95516.94;4964453;28;20685;-82
2023/04/26 17:40:00;;;;;;;7.23;4.30;;;;;;;10.46;46.35;95514.13;4958126;28;20218;-84
2023/04/26 17:42:41;;;;;;;10.90;6.47;;;;;;;10.64;46.29;95511.53;4959238;28;20307;-85